createdAt,value
2024-03-30T00:00:57.926Z,0.00
2024-03-30T00:01:57.914Z,0.00
2024-03-30T00:02:57.918Z,0.00
2024-03-30T00:03:57.937Z,0.00
2024-03-30T00:04:57.943Z,0.00
2024-03-30T00:05:57.981Z,0.00
2024-03-30T00:06:58.114Z,0.00
2024-03-30T00:07:58.044Z,0.00
2024-03-30T00:08:57.994Z,0.00
2024-03-30T00:09:58.056Z,0.00
2024-03-30T00:10:58.076Z,0.00
2024-03-30T00:11:58.076Z,0.00
2024-03-30T00:12:58.082Z,0.00
2024-03-30T00:13:58.081Z,0.00
2024-03-30T00:14:58.104Z,0.00
2024-03-30T00:15:58.143Z,0.00
2024-03-30T00:16:58.122Z,0.00
2024-03-30T00:17:58.134Z,0.00
2024-03-30T00:18:58.158Z,0.00
2024-03-30T00:19:58.229Z,0.00
2024-03-30T00:20:58.220Z,0.00
2024-03-30T00:21:58.196Z,0.00
2024-03-30T00:22:58.209Z,0.00
2024-03-30T00:23:58.230Z,0.00
2024-03-30T00:24:58.340Z,0.00
2024-03-30T00:25:58.271Z,0.00
2024-03-30T00:26:58.302Z,0.00
2024-03-30T00:27:58.292Z,0.00
2024-03-30T00:28:58.294Z,0.00
2024-03-30T00:29:58.353Z,0.00
2024-03-30T00:30:58.325Z,0.00
2024-03-30T00:31:58.344Z,0.00
2024-03-30T00:32:58.357Z,0.00
2024-03-30T00:33:58.368Z,0.00
2024-03-30T00:34:58.430Z,0.00
2024-03-30T00:35:58.418Z,0.00
2024-03-30T00:36:58.414Z,0.00
2024-03-30T00:37:58.438Z,0.00
2024-03-30T00:38:58.479Z,0.00
2024-03-30T00:39:58.494Z,0.00
2024-03-30T00:40:58.510Z,0.00
2024-03-30T00:41:58.500Z,0.00
2024-03-30T00:43:05.380Z,0.00
2024-03-30T00:43:58.520Z,0.00
2024-03-30T00:44:58.569Z,0.00
2024-03-30T00:45:58.550Z,0.00
2024-03-30T00:46:58.565Z,0.00
2024-03-30T00:47:58.625Z,0.00
2024-03-30T00:48:58.600Z,0.00
2024-03-30T00:49:58.631Z,0.00
2024-03-30T00:50:58.631Z,0.00
2024-03-30T00:51:58.636Z,0.00
2024-03-30T00:52:58.650Z,0.00
2024-03-30T00:53:58.809Z,0.00
2024-03-30T00:54:58.709Z,0.00
2024-03-30T00:55:58.689Z,0.00
2024-03-30T00:56:58.709Z,0.00
2024-03-30T00:57:58.733Z,0.00
2024-03-30T00:58:58.779Z,0.00
2024-03-30T00:59:58.754Z,0.00
2024-03-30T01:00:58.762Z,0.00
2024-03-30T01:01:58.758Z,0.00
2024-03-30T01:02:58.813Z,0.00
2024-03-30T01:03:58.829Z,0.00
2024-03-30T01:04:58.817Z,0.00
2024-03-30T01:05:58.831Z,0.00
2024-03-30T01:06:58.850Z,0.00
2024-03-30T01:07:58.862Z,0.00
2024-03-30T01:08:58.938Z,0.00
2024-03-30T01:09:58.895Z,0.00
2024-03-30T01:10:58.911Z,0.00
2024-03-30T01:11:58.927Z,0.00
2024-03-30T01:12:58.954Z,0.00
2024-03-30T01:13:58.994Z,0.00
2024-03-30T01:14:58.979Z,0.00
2024-03-30T01:15:59.002Z,0.00
2024-03-30T01:16:59.003Z,0.00
2024-03-30T01:17:59.036Z,0.00
2024-03-30T01:18:59.065Z,0.00
2024-03-30T01:19:59.047Z,0.00
2024-03-30T01:21:01.800Z,0.00
2024-03-30T01:21:59.080Z,0.00
2024-03-30T01:22:59.091Z,0.00
2024-03-30T01:23:59.129Z,0.00
2024-03-30T01:24:59.118Z,0.00
2024-03-30T01:25:59.127Z,0.00
2024-03-30T01:26:59.157Z,0.00
2024-03-30T01:27:59.193Z,0.00
2024-03-30T01:28:59.216Z,0.00
2024-03-30T01:29:59.225Z,0.00
2024-03-30T01:30:59.232Z,0.00
2024-03-30T01:31:59.234Z,0.00
2024-03-30T01:32:59.284Z,0.00
2024-03-30T01:33:59.244Z,0.00
2024-03-30T01:34:59.262Z,0.00
2024-03-30T01:35:59.293Z,0.00
2024-03-30T01:36:59.311Z,0.00
2024-03-30T01:37:59.366Z,0.00
2024-03-30T01:38:59.320Z,0.00
2024-03-30T01:39:59.339Z,0.00
2024-03-30T01:40:59.375Z,0.00
2024-03-30T01:41:59.376Z,0.00
2024-03-30T01:42:59.401Z,0.00
2024-03-30T01:43:59.384Z,0.00
2024-03-30T01:44:59.411Z,0.00
2024-03-30T01:45:59.410Z,0.00
2024-03-30T01:46:59.466Z,0.00
2024-03-30T01:47:59.469Z,0.00
2024-03-30T01:48:59.492Z,0.00
2024-03-30T01:49:59.453Z,0.00
2024-03-30T01:50:59.474Z,0.00
2024-03-30T01:51:59.521Z,0.00
2024-03-30T01:52:59.532Z,0.00
2024-03-30T01:53:59.513Z,0.00
2024-03-30T01:54:59.525Z,0.00
2024-03-30T01:55:59.529Z,0.00
2024-03-30T01:56:59.563Z,0.00
2024-03-30T01:57:59.610Z,0.00
2024-03-30T01:58:59.583Z,0.00
2024-03-30T01:59:59.595Z,0.00
2024-03-30T02:00:59.627Z,0.00
2024-03-30T02:01:59.633Z,0.00
2024-03-30T02:02:59.689Z,0.00
2024-03-30T02:03:59.666Z,0.00
2024-03-30T02:04:59.694Z,0.00
2024-03-30T02:05:59.698Z,0.00
2024-03-30T02:06:59.770Z,0.00
2024-03-30T02:07:59.754Z,0.00
2024-03-30T02:08:59.744Z,0.00
2024-03-30T02:09:59.767Z,0.00
2024-03-30T02:10:59.770Z,0.00
2024-03-30T02:11:59.805Z,0.00
2024-03-30T02:12:59.788Z,0.00
2024-03-30T02:13:59.804Z,0.00
2024-03-30T02:14:59.816Z,0.00
2024-03-30T02:15:59.827Z,0.00
2024-03-30T02:16:59.874Z,0.00
2024-03-30T02:17:59.868Z,0.00
2024-03-30T02:18:59.876Z,0.00
2024-03-30T02:19:59.929Z,0.00
2024-03-30T02:20:59.929Z,0.00
2024-03-30T02:21:59.959Z,0.00
2024-03-30T02:22:59.959Z,0.00
2024-03-30T02:23:59.958Z,0.00
2024-03-30T02:24:59.967Z,0.00
2024-03-30T02:25:59.963Z,0.00
2024-03-30T02:27:00.057Z,0.00
2024-03-30T02:27:59.987Z,0.00
2024-03-30T02:29:00.000Z,0.00
2024-03-30T02:30:00.065Z,0.00
2024-03-30T02:31:00.039Z,0.00
2024-03-30T02:32:00.089Z,0.00
2024-03-30T02:33:00.126Z,0.00
2024-03-30T02:34:00.100Z,0.00
2024-03-30T02:35:00.146Z,0.00
2024-03-30T02:36:00.124Z,0.00
2024-03-30T02:37:00.175Z,0.00
2024-03-30T02:38:00.158Z,0.00
2024-03-30T02:39:00.188Z,0.00
2024-03-30T02:40:00.204Z,0.00
2024-03-30T02:41:00.241Z,0.00
2024-03-30T02:42:00.221Z,0.00
2024-03-30T02:43:00.216Z,0.00
2024-03-30T02:44:00.216Z,0.00
2024-03-30T02:45:00.257Z,0.00
2024-03-30T02:46:00.304Z,0.00
2024-03-30T02:47:00.276Z,0.00
2024-03-30T02:48:00.287Z,0.00
2024-03-30T02:49:00.301Z,0.00
2024-03-30T02:50:00.317Z,0.00
2024-03-30T02:51:00.375Z,0.00
2024-03-30T02:52:00.331Z,0.00
2024-03-30T02:53:00.350Z,0.00
2024-03-30T02:54:00.364Z,0.00
2024-03-30T02:55:00.392Z,0.00
2024-03-30T02:56:00.427Z,0.00
2024-03-30T02:57:00.420Z,0.00
2024-03-30T02:58:00.420Z,0.00
2024-03-30T02:59:00.446Z,0.00
2024-03-30T03:00:00.497Z,0.00
2024-03-30T03:01:00.507Z,0.00
2024-03-30T03:02:00.497Z,0.00
2024-03-30T03:03:00.606Z,0.00
2024-03-30T03:04:00.505Z,0.00
2024-03-30T03:05:00.581Z,0.00
2024-03-30T03:06:00.561Z,0.00
2024-03-30T03:07:00.562Z,0.00
2024-03-30T03:08:00.598Z,0.00
2024-03-30T03:09:00.611Z,0.00
2024-03-30T03:10:00.678Z,0.00
2024-03-30T03:11:00.648Z,0.00
2024-03-30T03:12:00.656Z,0.00
2024-03-30T03:13:00.638Z,0.00
2024-03-30T03:14:00.641Z,0.00
2024-03-30T03:15:00.702Z,0.00
2024-03-30T03:16:00.689Z,0.00
2024-03-30T03:17:00.702Z,0.00
2024-03-30T03:18:00.692Z,0.00
2024-03-30T03:19:00.717Z,0.00
2024-03-30T03:20:01.145Z,0.00
2024-03-30T03:21:00.776Z,0.00
2024-03-30T03:22:00.765Z,0.00
2024-03-30T03:23:00.844Z,0.00
2024-03-30T03:24:00.800Z,0.00
2024-03-30T03:25:00.834Z,0.00
2024-03-30T03:26:00.811Z,0.00
2024-03-30T03:27:00.825Z,0.00
2024-03-30T03:28:00.837Z,0.00
2024-03-30T03:29:00.886Z,0.00
2024-03-30T03:30:00.924Z,0.00
2024-03-30T03:31:00.887Z,0.00
2024-03-30T03:32:00.899Z,0.00
2024-03-30T03:33:00.932Z,0.00
2024-03-30T03:34:00.962Z,0.00
2024-03-30T03:35:01.003Z,0.00
2024-03-30T03:36:00.983Z,0.00
2024-03-30T03:37:00.981Z,0.00
2024-03-30T03:38:00.985Z,0.00
2024-03-30T03:39:01.038Z,0.00
2024-03-30T03:40:01.040Z,0.00
2024-03-30T03:41:01.030Z,0.00
2024-03-30T03:42:01.030Z,0.00
2024-03-30T03:43:01.053Z,0.00
2024-03-30T03:44:01.092Z,0.00
2024-03-30T03:45:01.066Z,0.00
2024-03-30T03:46:01.079Z,0.00
2024-03-30T03:47:01.119Z,0.00
2024-03-30T03:48:01.104Z,0.00
2024-03-30T03:49:01.170Z,0.00
2024-03-30T03:50:01.156Z,0.00
2024-03-30T03:51:01.168Z,0.00
2024-03-30T03:52:01.215Z,0.00
2024-03-30T03:53:01.172Z,0.00
2024-03-30T03:54:01.263Z,0.00
2024-03-30T03:55:01.226Z,0.00
2024-03-30T03:56:01.230Z,0.00
2024-03-30T03:57:01.232Z,0.00
2024-03-30T03:58:01.241Z,0.00
2024-03-30T03:59:01.287Z,0.00
2024-03-30T04:00:01.279Z,0.00
2024-03-30T04:01:01.320Z,0.00
2024-03-30T04:02:01.308Z,0.00
2024-03-30T04:03:01.385Z,0.00
2024-03-30T04:04:01.374Z,0.00
2024-03-30T04:05:01.353Z,0.00
2024-03-30T04:06:01.393Z,0.00
2024-03-30T04:07:01.399Z,0.00
2024-03-30T04:08:01.434Z,0.00
2024-03-30T04:09:01.461Z,0.00
2024-03-30T04:10:01.461Z,0.00
2024-03-30T04:11:01.470Z,0.00
2024-03-30T04:12:01.513Z,0.00
2024-03-30T04:13:01.478Z,0.00
2024-03-30T04:14:01.540Z,0.00
2024-03-30T04:15:01.519Z,0.00
2024-03-30T04:16:01.539Z,0.00
2024-03-30T04:17:01.559Z,0.00
2024-03-30T04:18:01.589Z,0.00
2024-03-30T04:19:01.643Z,0.00
2024-03-30T04:20:01.634Z,0.00
2024-03-30T04:21:01.640Z,0.00
2024-03-30T04:22:01.664Z,0.00
2024-03-30T04:23:01.705Z,0.00
2024-03-30T04:24:01.751Z,0.00
2024-03-30T04:25:01.725Z,0.00
2024-03-30T04:26:01.738Z,0.00
2024-03-30T04:27:01.730Z,0.00
2024-03-30T04:28:01.796Z,0.00
2024-03-30T04:29:01.770Z,0.00
2024-03-30T04:30:01.813Z,0.00
2024-03-30T04:31:01.802Z,0.00
2024-03-30T04:32:01.801Z,0.00
2024-03-30T04:33:02.667Z,0.00
2024-03-30T04:34:01.842Z,0.00
2024-03-30T04:35:01.830Z,0.00
2024-03-30T04:36:01.881Z,0.00
2024-03-30T04:37:01.872Z,0.00
2024-03-30T04:38:01.950Z,0.00
2024-03-30T04:39:01.910Z,0.00
2024-03-30T04:40:01.944Z,0.00
2024-03-30T04:41:01.938Z,0.00
2024-03-30T04:42:01.955Z,0.00
2024-03-30T04:43:02.030Z,0.00
2024-03-30T04:44:01.973Z,0.00
2024-03-30T04:45:02.027Z,0.00
2024-03-30T04:46:02.010Z,0.00
2024-03-30T04:47:02.049Z,0.00
2024-03-30T04:48:02.115Z,0.00
2024-03-30T04:49:02.057Z,0.00
2024-03-30T04:50:02.078Z,0.00
2024-03-30T04:51:02.095Z,0.00
2024-03-30T04:52:02.112Z,0.00
2024-03-30T04:53:02.209Z,0.00
2024-03-30T04:54:02.171Z,0.00
2024-03-30T04:55:02.197Z,0.00
2024-03-30T04:56:02.192Z,0.00
2024-03-30T04:57:02.258Z,0.00
2024-03-30T04:58:02.281Z,0.00
2024-03-30T04:59:02.232Z,0.00
2024-03-30T05:00:02.257Z,0.00
2024-03-30T05:01:02.276Z,0.00
2024-03-30T05:02:02.293Z,0.00
2024-03-30T05:03:02.396Z,0.00
2024-03-30T05:04:02.328Z,0.00
2024-03-30T05:05:02.358Z,0.00
2024-03-30T05:06:02.378Z,0.00
2024-03-30T05:07:02.384Z,0.00
2024-03-30T05:08:02.445Z,0.00
2024-03-30T05:09:02.431Z,0.00
2024-03-30T05:10:02.487Z,0.00
2024-03-30T05:11:02.475Z,0.00
2024-03-30T05:12:02.507Z,0.00
2024-03-30T05:13:02.531Z,0.00
2024-03-30T05:14:02.495Z,0.00
2024-03-30T05:15:02.507Z,0.00
2024-03-30T05:16:02.559Z,0.00
2024-03-30T05:17:02.557Z,0.00
2024-03-30T05:18:02.594Z,0.00
2024-03-30T05:19:02.592Z,0.00
2024-03-30T05:20:02.614Z,0.00
2024-03-30T05:21:02.628Z,0.00
2024-03-30T05:22:02.641Z,0.00
2024-03-30T05:23:02.664Z,0.00
2024-03-30T05:24:02.654Z,0.00
2024-03-30T05:25:02.674Z,0.00
2024-03-30T05:26:02.684Z,0.00
2024-03-30T05:27:02.713Z,0.00
2024-03-30T05:28:02.761Z,0.00
2024-03-30T05:29:02.728Z,0.00
2024-03-30T05:30:02.787Z,0.00
2024-03-30T05:31:02.757Z,0.00
2024-03-30T05:32:02.825Z,0.00
2024-03-30T05:33:02.864Z,0.00
2024-03-30T05:34:02.815Z,0.00
2024-03-30T05:35:02.839Z,0.00
2024-03-30T05:36:02.898Z,0.00
2024-03-30T05:37:02.875Z,0.00
2024-03-30T05:38:02.876Z,0.00
2024-03-30T05:39:02.901Z,0.00
2024-03-30T05:40:02.884Z,0.00
2024-03-30T05:41:02.906Z,0.00
2024-03-30T05:42:03.009Z,0.00
2024-03-30T05:43:02.945Z,0.00
2024-03-30T05:44:02.971Z,0.00
2024-03-30T05:45:03.011Z,0.00
2024-03-30T05:46:03.001Z,4.00
2024-03-30T05:47:03.040Z,4.00
2024-03-30T05:48:03.071Z,4.00
2024-03-30T05:49:03.044Z,0.00
2024-03-30T05:50:03.098Z,0.00
2024-03-30T05:51:03.075Z,0.00
2024-03-30T05:52:03.133Z,0.00
2024-03-30T05:53:03.182Z,0.00
2024-03-30T05:54:03.144Z,0.00
2024-03-30T05:55:03.130Z,0.00
2024-03-30T05:56:03.149Z,4.00
2024-03-30T05:57:03.228Z,4.00
2024-03-30T05:58:03.193Z,4.00
2024-03-30T05:59:03.192Z,4.00
2024-03-30T06:00:03.259Z,4.00
2024-03-30T06:01:03.243Z,4.00
2024-03-30T06:02:03.278Z,4.00
2024-03-30T06:03:03.298Z,0.00
2024-03-30T06:04:03.288Z,0.00
2024-03-30T06:05:03.289Z,0.00
2024-03-30T06:06:03.314Z,0.00
2024-03-30T06:07:03.362Z,0.00
2024-03-30T06:08:03.378Z,0.00
2024-03-30T06:09:03.393Z,4.00
2024-03-30T06:10:03.404Z,4.00
2024-03-30T06:11:03.406Z,4.00
2024-03-30T06:12:03.553Z,4.00
2024-03-30T06:13:03.454Z,4.00
2024-03-30T06:14:03.459Z,4.00
2024-03-30T06:15:03.543Z,4.00
2024-03-30T06:16:03.490Z,4.00
2024-03-30T06:17:03.520Z,4.00
2024-03-30T06:18:03.510Z,0.00
2024-03-30T06:19:03.506Z,0.00
2024-03-30T06:20:03.540Z,4.00
2024-03-30T06:21:03.595Z,4.00
2024-03-30T06:22:03.599Z,4.00
2024-03-30T06:23:03.581Z,0.00
2024-03-30T06:24:03.623Z,0.00
2024-03-30T06:25:03.631Z,4.00
2024-03-30T06:26:03.727Z,4.00
2024-03-30T06:27:03.698Z,4.00
2024-03-30T06:28:03.651Z,4.00
2024-03-30T06:29:03.678Z,4.00
2024-03-30T06:30:03.712Z,4.00
2024-03-30T06:31:03.735Z,4.00
2024-03-30T06:32:03.714Z,4.00
2024-03-30T06:33:03.738Z,4.00
2024-03-30T06:34:03.747Z,4.00
2024-03-30T06:35:03.745Z,4.00
2024-03-30T06:36:03.836Z,4.00
2024-03-30T06:37:03.785Z,8.00
2024-03-30T06:38:03.823Z,4.00
2024-03-30T06:39:03.861Z,4.00
2024-03-30T06:40:03.854Z,8.00
2024-03-30T06:41:03.916Z,8.00
2024-03-30T06:42:03.898Z,4.00
2024-03-30T06:43:03.889Z,4.00
2024-03-30T06:44:03.906Z,4.00
2024-03-30T06:45:04.017Z,8.00
2024-03-30T06:46:04.000Z,8.00
2024-03-30T06:47:03.950Z,4.00
2024-03-30T06:48:03.988Z,4.00
2024-03-30T06:49:03.986Z,8.00
2024-03-30T06:50:04.002Z,8.00
2024-03-30T06:51:04.106Z,8.00
2024-03-30T06:52:04.031Z,4.00
2024-03-30T06:53:04.060Z,8.00
2024-03-30T06:54:04.086Z,8.00
2024-03-30T06:55:04.078Z,8.00
2024-03-30T06:56:04.147Z,8.00
2024-03-30T06:57:04.142Z,8.00
2024-03-30T06:58:04.124Z,8.00
2024-03-30T06:59:04.160Z,8.00
2024-03-30T07:00:04.183Z,8.00
2024-03-30T07:01:04.203Z,8.00
2024-03-30T07:02:04.209Z,8.00
2024-03-30T07:03:04.239Z,12.00
2024-03-30T07:04:04.215Z,8.00
2024-03-30T07:05:04.230Z,8.00
2024-03-30T07:06:04.311Z,8.00
2024-03-30T07:07:04.260Z,8.00
2024-03-30T07:08:04.281Z,8.00
2024-03-30T07:09:04.310Z,8.00
2024-03-30T07:10:04.307Z,8.00
2024-03-30T07:11:04.336Z,8.00
2024-03-30T07:12:04.422Z,12.00
2024-03-30T07:13:04.335Z,8.00
2024-03-30T07:14:04.354Z,8.00
2024-03-30T07:15:04.415Z,12.00
2024-03-30T07:16:04.421Z,8.00
2024-03-30T07:17:14.208Z,12.00
2024-03-30T07:18:04.699Z,8.00
2024-03-30T07:19:04.421Z,12.00
2024-03-30T07:20:04.511Z,12.00
2024-03-30T07:21:04.513Z,12.00
2024-03-30T07:22:04.469Z,12.00
2024-03-30T07:23:04.479Z,12.00
2024-03-30T07:24:04.518Z,16.00
2024-03-30T07:25:04.540Z,12.00
2024-03-30T07:26:04.533Z,12.00
2024-03-30T07:27:04.604Z,16.00
2024-03-30T07:28:04.559Z,12.00
2024-03-30T07:29:04.564Z,16.00
2024-03-30T07:30:04.683Z,16.00
2024-03-30T07:31:04.597Z,16.00
2024-03-30T07:32:04.641Z,16.00
2024-03-30T07:33:04.724Z,16.00
2024-03-30T07:34:04.663Z,16.00
2024-03-30T07:35:04.688Z,16.00
2024-03-30T07:36:04.739Z,20.00
2024-03-30T07:37:04.707Z,16.00
2024-03-30T07:38:04.714Z,16.00
2024-03-30T07:39:04.748Z,16.00
2024-03-30T07:40:04.771Z,20.00
2024-03-30T07:41:04.748Z,20.00
2024-03-30T07:42:04.794Z,16.00
2024-03-30T07:43:04.775Z,16.00
2024-03-30T07:44:04.818Z,16.00
2024-03-30T07:45:04.894Z,16.00
2024-03-30T07:46:04.861Z,16.00
2024-03-30T07:47:04.857Z,20.00
2024-03-30T07:48:04.940Z,16.00
2024-03-30T07:49:04.882Z,16.00
2024-03-30T07:50:04.933Z,16.00
2024-03-30T07:51:04.940Z,20.00
2024-03-30T07:52:04.936Z,16.00
2024-03-30T07:53:04.952Z,16.00
2024-03-30T07:54:04.992Z,16.00
2024-03-30T07:55:05.044Z,16.00
2024-03-30T07:56:05.124Z,16.00
2024-03-30T07:57:05.248Z,12.00
2024-03-30T07:58:05.021Z,16.00
2024-03-30T07:59:05.206Z,16.00
2024-03-30T08:00:05.119Z,12.00
2024-03-30T08:01:05.093Z,16.00
2024-03-30T08:02:05.065Z,12.00
2024-03-30T08:03:05.092Z,16.00
2024-03-30T08:04:05.150Z,16.00
2024-03-30T08:05:06.591Z,16.00
2024-03-30T08:06:05.176Z,16.00
2024-03-30T08:07:05.132Z,16.00
2024-03-30T08:08:05.159Z,16.00
2024-03-30T08:09:05.246Z,16.00
2024-03-30T08:10:05.192Z,16.00
2024-03-30T08:11:05.202Z,16.00
2024-03-30T08:12:05.264Z,16.00
2024-03-30T08:13:05.246Z,16.00
2024-03-30T08:14:05.301Z,16.00
2024-03-30T08:15:05.308Z,16.00
2024-03-30T08:16:05.305Z,16.00
2024-03-30T08:17:05.321Z,12.00
2024-03-30T08:18:05.373Z,12.00
2024-03-30T08:19:05.358Z,12.00
2024-03-30T08:20:05.344Z,16.00
2024-03-30T08:21:05.381Z,12.00
2024-03-30T08:22:05.376Z,12.00
2024-03-30T08:23:05.383Z,12.00
2024-03-30T08:24:05.487Z,16.00
2024-03-30T08:25:05.450Z,12.00
2024-03-30T08:26:05.425Z,16.00
2024-03-30T08:27:05.524Z,16.00
2024-03-30T08:28:05.500Z,16.00
2024-03-30T08:29:05.524Z,16.00
2024-03-30T08:30:09.893Z,16.00
2024-03-30T08:31:05.489Z,16.00
2024-03-30T08:32:05.509Z,20.00
2024-03-30T08:33:05.565Z,16.00
2024-03-30T08:34:05.549Z,16.00
2024-03-30T08:35:05.523Z,16.00
2024-03-30T08:36:05.563Z,16.00
2024-03-30T08:37:05.552Z,16.00
2024-03-30T08:38:05.571Z,16.00
2024-03-30T08:39:05.660Z,16.00
2024-03-30T08:40:05.618Z,20.00
2024-03-30T08:41:05.663Z,16.00
2024-03-30T08:42:05.727Z,16.00
2024-03-30T08:43:05.662Z,16.00
2024-03-30T08:44:05.717Z,16.00
2024-03-30T08:45:05.714Z,16.00
2024-03-30T08:46:05.702Z,16.00
2024-03-30T08:47:05.724Z,16.00
2024-03-30T08:48:05.799Z,16.00
2024-03-30T08:49:05.782Z,12.00
2024-03-30T08:50:05.763Z,12.00
2024-03-30T08:51:05.802Z,12.00
2024-03-30T08:52:05.847Z,12.00
2024-03-30T08:53:05.936Z,16.00
2024-03-30T08:54:05.861Z,16.00
2024-03-30T08:55:05.882Z,16.00
2024-03-30T08:56:05.862Z,16.00
2024-03-30T08:57:05.913Z,16.00
2024-03-30T08:58:05.934Z,16.00
2024-03-30T08:59:05.908Z,16.00
2024-03-30T09:00:05.941Z,16.00
2024-03-30T09:01:05.946Z,16.00
2024-03-30T09:02:05.970Z,16.00
2024-03-30T09:03:06.030Z,12.00
2024-03-30T09:04:05.977Z,12.00
2024-03-30T09:05:06.009Z,16.00
2024-03-30T09:06:06.009Z,16.00
2024-03-30T09:07:06.014Z,16.00
2024-03-30T09:08:06.071Z,16.00
2024-03-30T09:09:06.087Z,16.00
2024-03-30T09:10:06.046Z,12.00
2024-03-30T09:11:06.066Z,12.00
2024-03-30T09:12:06.103Z,12.00
2024-03-30T09:13:06.124Z,12.00
2024-03-30T09:14:06.115Z,12.00
2024-03-30T09:15:06.141Z,12.00
2024-03-30T09:16:06.172Z,12.00
2024-03-30T09:17:06.155Z,16.00
2024-03-30T09:18:06.196Z,12.00
2024-03-30T09:19:06.194Z,16.00
2024-03-30T09:20:06.216Z,12.00
2024-03-30T09:21:06.275Z,16.00
2024-03-30T09:22:06.271Z,16.00
2024-03-30T09:23:06.283Z,16.00
2024-03-30T09:24:06.259Z,16.00
2024-03-30T09:25:06.291Z,16.00
2024-03-30T09:26:06.283Z,20.00
2024-03-30T09:27:06.368Z,16.00
2024-03-30T09:28:06.302Z,16.00
2024-03-30T09:29:06.319Z,20.00
2024-03-30T09:30:06.379Z,16.00
2024-03-30T09:31:06.372Z,20.00
2024-03-30T09:32:06.411Z,20.00
2024-03-30T09:33:06.396Z,20.00
2024-03-30T09:34:06.390Z,20.00
2024-03-30T09:35:06.419Z,20.00
2024-03-30T09:36:06.436Z,20.00
2024-03-30T09:37:06.472Z,20.00
2024-03-30T09:38:06.455Z,20.00
2024-03-30T09:39:06.482Z,24.00
2024-03-30T09:40:06.469Z,20.00
2024-03-30T09:41:06.498Z,24.00
2024-03-30T09:42:06.670Z,24.00
2024-03-30T09:43:06.528Z,24.00
2024-03-30T09:44:06.560Z,20.00
2024-03-30T09:45:06.584Z,20.00
2024-03-30T09:46:06.616Z,24.00
2024-03-30T09:47:06.638Z,24.00
2024-03-30T09:48:06.622Z,24.00
2024-03-30T09:49:06.626Z,24.00
2024-03-30T09:50:06.642Z,24.00
2024-03-30T09:51:06.682Z,24.00
2024-03-30T09:52:06.690Z,24.00
2024-03-30T09:53:06.669Z,24.00
2024-03-30T09:54:06.741Z,24.00
2024-03-30T09:55:06.709Z,24.00
2024-03-30T09:56:06.735Z,24.00
2024-03-30T09:57:06.804Z,24.00
2024-03-30T09:58:06.738Z,24.00
2024-03-30T09:59:06.754Z,24.00
2024-03-30T10:00:06.800Z,24.00
2024-03-30T10:01:06.799Z,24.00
2024-03-30T10:02:06.842Z,20.00
2024-03-30T10:03:06.833Z,20.00
2024-03-30T10:04:06.841Z,20.00
2024-03-30T10:05:06.843Z,20.00
2024-03-30T10:06:06.872Z,16.00
2024-03-30T10:07:06.917Z,20.00
2024-03-30T10:08:06.891Z,20.00
2024-03-30T10:09:06.926Z,16.00
2024-03-30T10:10:06.936Z,16.00
2024-03-30T10:11:07.790Z,16.00
2024-03-30T10:12:06.986Z,16.00
2024-03-30T10:13:06.964Z,16.00
2024-03-30T10:14:07.697Z,20.00
2024-03-30T10:15:07.022Z,20.00
2024-03-30T10:16:07.005Z,20.00
2024-03-30T10:17:07.046Z,20.00
2024-03-30T10:18:07.032Z,20.00
2024-03-30T10:19:07.043Z,20.00
2024-03-30T10:20:07.060Z,20.00
2024-03-30T10:21:07.209Z,16.00
2024-03-30T10:22:07.123Z,16.00
2024-03-30T10:23:07.112Z,20.00
2024-03-30T10:24:07.120Z,16.00
2024-03-30T10:25:07.177Z,16.00
2024-03-30T10:26:07.187Z,16.00
2024-03-30T10:27:07.231Z,16.00
2024-03-30T10:28:07.186Z,16.00
2024-03-30T10:29:07.205Z,12.00
2024-03-30T10:30:07.251Z,16.00
2024-03-30T10:31:07.258Z,12.00
2024-03-30T10:32:08.849Z,16.00
2024-03-30T10:33:07.257Z,16.00
2024-03-30T10:34:07.277Z,16.00
2024-03-30T10:35:07.296Z,16.00
2024-03-30T10:36:07.315Z,16.00
2024-03-30T10:37:07.371Z,20.00
2024-03-30T10:38:08.963Z,16.00
2024-03-30T10:39:07.362Z,16.00
2024-03-30T10:40:07.357Z,20.00
2024-03-30T10:41:07.406Z,20.00
2024-03-30T10:42:07.427Z,16.00
2024-03-30T10:43:07.403Z,20.00
2024-03-30T10:44:07.410Z,20.00
2024-03-30T10:45:07.509Z,16.00
2024-03-30T10:46:07.642Z,20.00
2024-03-30T10:47:07.553Z,20.00
2024-03-30T10:48:07.598Z,20.00
2024-03-30T10:49:07.522Z,20.00
2024-03-30T10:50:07.676Z,20.00
2024-03-30T10:51:07.742Z,20.00
2024-03-30T10:52:07.668Z,24.00
2024-03-30T10:53:07.614Z,24.00
2024-03-30T10:54:07.791Z,24.00
2024-03-30T10:55:07.701Z,24.00
2024-03-30T10:56:07.750Z,28.00
2024-03-30T10:57:07.758Z,24.00
2024-03-30T10:58:07.625Z,28.00
2024-03-30T10:59:07.641Z,24.00
2024-03-30T11:00:07.683Z,24.00
2024-03-30T11:01:07.708Z,28.00
2024-03-30T11:02:07.683Z,24.00
2024-03-30T11:03:07.755Z,24.00
2024-03-30T11:04:07.699Z,24.00
2024-03-30T11:05:07.716Z,28.00
2024-03-30T11:06:07.781Z,28.00
2024-03-30T11:07:07.767Z,28.00
2024-03-30T11:08:07.769Z,28.00
2024-03-30T11:09:07.825Z,28.00
2024-03-30T11:10:07.794Z,28.00
2024-03-30T11:11:07.852Z,28.00
2024-03-30T11:12:07.841Z,32.00
2024-03-30T11:13:09.542Z,32.00
2024-03-30T11:14:07.857Z,28.00
2024-03-30T11:15:07.931Z,28.00
2024-03-30T11:16:07.935Z,28.00
2024-03-30T11:17:07.896Z,28.00
2024-03-30T11:18:07.922Z,28.00
2024-03-30T11:19:08.459Z,28.00
2024-03-30T11:20:07.986Z,28.00
2024-03-30T11:21:07.988Z,32.00
2024-03-30T11:22:07.988Z,28.00
2024-03-30T11:23:08.008Z,28.00
2024-03-30T11:24:08.042Z,28.00
2024-03-30T11:25:08.077Z,32.00
2024-03-30T11:26:08.057Z,32.00
2024-03-30T11:27:08.060Z,28.00
2024-03-30T11:28:08.073Z,32.00
2024-03-30T11:29:08.081Z,32.00
2024-03-30T11:30:08.184Z,32.00
2024-03-30T11:31:08.116Z,28.00
2024-03-30T11:32:08.122Z,32.00
2024-03-30T11:33:08.133Z,32.00
2024-03-30T11:34:08.167Z,32.00
2024-03-30T11:35:08.678Z,32.00
2024-03-30T11:36:08.181Z,32.00
2024-03-30T11:37:08.222Z,32.00
2024-03-30T11:38:08.201Z,32.00
2024-03-30T11:39:08.353Z,32.00
2024-03-30T11:40:08.273Z,32.00
2024-03-30T11:41:08.292Z,32.00
2024-03-30T11:42:08.337Z,32.00
2024-03-30T11:43:08.461Z,32.00
2024-03-30T11:44:08.345Z,36.00
2024-03-30T11:45:08.541Z,36.00
2024-03-30T11:46:08.364Z,36.00
2024-03-30T11:47:08.377Z,32.00
2024-03-30T11:48:08.402Z,36.00
2024-03-30T11:49:08.426Z,36.00
2024-03-30T11:50:08.474Z,36.00
2024-03-30T11:51:08.457Z,36.00
2024-03-30T11:52:08.440Z,40.00
2024-03-30T11:53:08.929Z,40.00
2024-03-30T11:54:08.534Z,40.00
2024-03-30T11:55:08.521Z,44.00
2024-03-30T11:56:08.528Z,40.00
2024-03-30T11:57:16.712Z,44.00
2024-03-30T11:58:08.537Z,44.00
2024-03-30T11:59:08.552Z,44.00
2024-03-30T12:00:08.612Z,40.00
2024-03-30T12:01:08.576Z,40.00
2024-03-30T12:02:08.595Z,40.00
2024-03-30T12:03:08.612Z,36.00
2024-03-30T12:04:08.625Z,40.00
2024-03-30T12:05:08.666Z,40.00
2024-03-30T12:06:08.644Z,36.00
2024-03-30T12:07:08.660Z,36.00
2024-03-30T12:08:08.671Z,36.00
2024-03-30T12:09:08.702Z,36.00
2024-03-30T12:10:08.738Z,36.00
2024-03-30T12:11:08.720Z,36.00
2024-03-30T12:12:08.743Z,36.00
2024-03-30T12:13:08.746Z,32.00
2024-03-30T12:14:08.759Z,36.00
2024-03-30T12:15:08.825Z,32.00
2024-03-30T12:16:08.791Z,36.00
2024-03-30T12:17:08.809Z,36.00
2024-03-30T12:18:08.855Z,32.00
2024-03-30T12:19:08.845Z,32.00
2024-03-30T12:20:08.902Z,32.00
2024-03-30T12:21:08.862Z,32.00
2024-03-30T12:22:08.905Z,32.00
2024-03-30T12:23:08.909Z,32.00
2024-03-30T12:24:08.966Z,32.00
2024-03-30T12:25:08.971Z,28.00
2024-03-30T12:26:08.930Z,28.00
2024-03-30T12:27:08.993Z,28.00
2024-03-30T12:28:08.984Z,28.00
2024-03-30T12:29:09.030Z,28.00
2024-03-30T12:30:09.029Z,28.00
2024-03-30T12:31:09.022Z,28.00
2024-03-30T12:32:09.037Z,32.00
2024-03-30T12:33:09.051Z,28.00
2024-03-30T12:34:09.093Z,32.00
2024-03-30T12:35:09.086Z,32.00
2024-03-30T12:36:09.098Z,28.00
2024-03-30T12:37:09.105Z,32.00
2024-03-30T12:38:09.109Z,32.00
2024-03-30T12:39:09.181Z,32.00
2024-03-30T12:40:09.160Z,32.00
2024-03-30T12:41:09.171Z,32.00
2024-03-30T12:42:09.207Z,32.00
2024-03-30T12:43:09.249Z,32.00
2024-03-30T12:44:09.266Z,28.00
2024-03-30T12:45:09.251Z,28.00
2024-03-30T12:46:09.272Z,28.00
2024-03-30T12:47:09.290Z,28.00
2024-03-30T12:48:09.359Z,28.00
2024-03-30T12:49:09.325Z,28.00
2024-03-30T12:50:09.323Z,28.00
2024-03-30T12:51:09.329Z,28.00
2024-03-30T12:52:09.354Z,28.00
2024-03-30T12:53:09.391Z,28.00
2024-03-30T12:54:09.447Z,28.00
2024-03-30T12:55:09.386Z,28.00
2024-03-30T12:56:09.421Z,28.00
2024-03-30T12:57:09.460Z,28.00
2024-03-30T12:58:09.464Z,28.00
2024-03-30T12:59:09.457Z,28.00
2024-03-30T13:00:09.482Z,28.00
2024-03-30T13:01:09.506Z,32.00
2024-03-30T13:02:09.522Z,28.00
2024-03-30T13:03:09.543Z,32.00
2024-03-30T13:04:09.530Z,28.00
2024-03-30T13:05:09.575Z,32.00
2024-03-30T13:06:09.616Z,32.00
2024-03-30T13:07:15.114Z,32.00